Time;durP1;ratioP1;P1;durP2;ratioP2;P2;SDS_P1;SDS_P2;PMS_P1;PMS_P2;Temp;Humidity;BMP_temperature;BMP_pressure;BME280_temperature;BME280_humidity;BME280_pressure;Samples;Min_cycle;Max_cycle;Signal;HPM_P1;HPM_P2
2021/08/18 00:00:48;;;;;;;29.10;21.45;;;15.60;99.90;;;;;;5036196;28;20446;-80
2021/08/18 00:03:16;;;;;;;30.27;21.40;;;15.60;99.90;;;;;;5035212;28;20068;-79
2021/08/18 00:05:43;;;;;;;25.63;21.15;;;15.60;99.90;;;;;;5036661;28;20109;-80
2021/08/18 00:08:12;;;;;;;31.52;22.55;;;15.60;99.90;;;;;;5043193;28;20084;-81
2021/08/18 00:10:42;;;;;;;30.83;22.98;;;15.60;99.90;;;;;;5035902;28;20164;-81
2021/08/18 00:13:10;;;;;;;33.30;22.92;;;15.60;99.90;;;;;;5033904;28;20081;-80
2021/08/18 00:15:38;;;;;;;30.40;22.75;;;15.60;99.90;;;;;;5034436;28;20134;-81
2021/08/18 00:18:05;;;;;;;31.23;22.52;;;15.60;99.90;;;;;;5035746;28;20109;-80
2021/08/18 00:20:33;;;;;;;32.22;23.27;;;15.60;99.90;;;;;;5035668;28;20045;-80
2021/08/18 00:23:00;;;;;;;28.50;22.05;;;15.60;99.90;;;;;;5036987;28;20068;-82
2021/08/18 00:25:28;;;;;;;31.20;21.48;;;15.60;99.90;;;;;;5037574;28;20049;-81
2021/08/18 00:27:56;;;;;;;28.77;20.10;;;15.60;99.90;;;;;;5037289;28;20088;-81
2021/08/18 00:30:23;;;;;;;28.75;20.35;;;15.60;99.90;;;;;;5038757;28;20104;-82
2021/08/18 00:32:50;;;;;;;29.17;19.63;;;15.60;99.90;;;;;;5038171;28;20178;-81
2021/08/18 00:35:17;;;;;;;28.88;19.85;;;15.60;99.90;;;;;;5035893;28;20092;-80
2021/08/18 00:37:44;;;;;;;27.58;19.50;;;15.60;99.90;;;;;;5033571;28;20132;-80
2021/08/18 00:40:13;;;;;;;26.52;19.90;;;15.60;99.90;;;;;;5033473;28;20045;-80
2021/08/18 00:42:41;;;;;;;28.90;18.33;;;15.60;99.90;;;;;;5033750;28;20045;-81
2021/08/18 00:45:10;;;;;;;27.00;18.23;;;15.60;99.90;;;;;;5032581;28;20132;-80
2021/08/18 00:47:44;;;;;;;27.65;18.48;;;15.60;99.90;;;;;;5034844;28;20454;-80
2021/08/18 00:50:15;;;;;;;22.25;17.08;;;15.60;99.90;;;;;;5035614;28;20080;-82
2021/08/18 00:52:42;;;;;;;22.70;17.17;;;15.60;99.90;;;;;;5034392;28;20580;-81
2021/08/18 00:55:11;;;;;;;24.95;17.90;;;15.50;99.90;;;;;;5034807;28;20088;-79
2021/08/18 00:57:39;;;;;;;26.17;17.58;;;15.60;99.90;;;;;;5034942;28;20096;-81
2021/08/18 01:00:07;;;;;;;25.70;16.95;;;15.60;99.90;;;;;;5033830;28;20132;-80
2021/08/18 01:02:37;;;;;;;25.45;17.67;;;15.50;99.90;;;;;;5034252;28;20085;-80
2021/08/18 01:05:07;;;;;;;22.85;17.27;;;15.50;99.90;;;;;;5031929;28;20509;-79
2021/08/18 01:07:34;;;;;;;25.67;18.40;;;15.60;99.90;;;;;;5031982;28;20153;-79
2021/08/18 01:10:02;;;;;;;24.98;17.77;;;15.60;99.90;;;;;;5032157;28;20056;-79
2021/08/18 01:12:29;;;;;;;32.65;19.80;;;15.60;99.90;;;;;;5032021;28;20136;-80
2021/08/18 01:14:56;;;;;;;27.23;19.73;;;15.60;99.90;;;;;;5033758;28;20084;-80
2021/08/18 01:17:23;;;;;;;24.83;20.15;;;15.60;99.90;;;;;;5034511;28;20064;-80
2021/08/18 01:19:51;;;;;;;25.80;19.63;;;15.70;99.90;;;;;;5033788;28;20136;-79
2021/08/18 01:22:18;;;;;;;27.30;19.50;;;15.70;99.90;;;;;;5032546;28;20133;-80
2021/08/18 01:24:45;;;;;;;31.30;20.60;;;15.70;99.90;;;;;;5032297;28;20132;-80
2021/08/18 01:27:12;;;;;;;27.92;20.58;;;15.70;99.90;;;;;;5035853;28;20077;-80
2021/08/18 01:29:40;;;;;;;34.13;20.25;;;15.70;99.90;;;;;;5036975;28;20045;-80
2021/08/18 01:32:08;;;;;;;28.02;18.98;;;15.70;99.90;;;;;;5038687;28;20536;-80
2021/08/18 01:34:36;;;;;;;25.85;19.13;;;15.70;99.90;;;;;;5038277;28;20535;-80
2021/08/18 01:37:03;;;;;;;27.15;19.73;;;15.70;99.90;;;;;;5037338;28;20049;-78
2021/08/18 01:39:30;;;;;;;26.63;18.45;;;15.80;99.90;;;;;;5035640;28;20105;-79
2021/08/18 01:41:57;;;;;;;24.45;18.52;;;15.80;99.90;;;;;;5035668;28;20048;-79
2021/08/18 01:44:24;;;;;;;25.90;16.92;;;15.80;99.90;;;;;;5034371;28;20132;-80
2021/08/18 01:46:52;;;;;;;26.05;17.83;;;15.80;99.90;;;;;;5036040;28;20140;-80
2021/08/18 01:49:19;;;;;;;31.27;18.60;;;15.80;99.90;;;;;;5034947;28;20095;-80
2021/08/18 01:51:46;;;;;;;26.15;18.83;;;15.70;99.90;;;;;;5034674;28;20085;-78
2021/08/18 01:54:13;;;;;;;26.02;18.85;;;15.70;99.90;;;;;;5035549;28;20052;-78
2021/08/18 01:56:40;;;;;;;26.00;19.65;;;15.70;99.90;;;;;;5035810;28;20057;-80
2021/08/18 01:59:07;;;;;;;27.10;20.50;;;15.70;99.90;;;;;;5038161;28;20136;-79
2021/08/18 02:01:34;;;;;;;27.38;19.35;;;15.70;99.90;;;;;;5037974;28;20080;-80
2021/08/18 02:04:02;;;;;;;27.42;19.77;;;15.80;99.90;;;;;;5036359;28;20109;-79
2021/08/18 02:06:31;;;;;;;25.83;19.95;;;15.80;99.90;;;;;;5036915;28;20132;-79
2021/08/18 02:08:58;;;;;;;29.73;21.25;;;15.90;99.90;;;;;;5036614;28;20046;-81
2021/08/18 02:11:25;;;;;;;31.40;21.00;;;15.90;99.90;;;;;;5036342;28;20042;-79
2021/08/18 02:13:52;;;;;;;29.25;20.83;;;15.90;99.90;;;;;;5035463;28;20474;-79
2021/08/18 02:16:19;;;;;;;29.48;21.30;;;15.90;99.90;;;;;;5035387;28;20053;-80
2021/08/18 02:18:46;;;;;;;31.42;20.38;;;15.90;99.90;;;;;;5034690;28;20132;-80
2021/08/18 02:21:14;;;;;;;30.55;20.75;;;15.90;99.90;;;;;;5034159;28;20045;-80
2021/08/18 02:23:41;;;;;;;26.83;20.08;;;15.80;99.90;;;;;;5038161;28;20053;-81
2021/08/18 02:26:07;;;;;;;30.15;21.30;;;15.80;99.90;;;;;;5038343;28;20132;-80
2021/08/18 02:28:34;;;;;;;29.95;21.27;;;15.90;99.90;;;;;;5037616;28;20128;-79
2021/08/18 02:31:01;;;;;;;29.55;21.30;;;15.90;99.90;;;;;;5037577;28;20118;-80
2021/08/18 02:33:28;;;;;;;33.28;20.90;;;15.80;99.90;;;;;;5036887;28;20144;-80
2021/08/18 02:35:55;;;;;;;27.45;18.58;;;15.90;99.90;;;;;;5036821;28;20480;-80
2021/08/18 02:38:23;;;;;;;27.63;19.15;;;15.90;99.90;;;;;;5037381;28;20141;-80
2021/08/18 02:40:50;;;;;;;29.20;19.50;;;15.90;99.90;;;;;;5039048;28;20045;-82
2021/08/18 02:43:17;;;;;;;36.45;19.70;;;15.80;99.90;;;;;;5039046;28;20136;-82
2021/08/18 02:45:44;;;;;;;27.60;19.23;;;15.80;99.90;;;;;;5040451;28;20093;-81
2021/08/18 02:48:11;;;;;;;29.17;20.27;;;15.80;99.90;;;;;;5043375;28;20483;-80
2021/08/18 02:50:38;;;;;;;28.10;20.13;;;15.80;99.90;;;;;;5038250;28;20496;-79
2021/08/18 02:53:05;;;;;;;30.08;20.23;;;15.80;99.90;;;;;;5037447;28;20068;-81
2021/08/18 02:55:33;;;;;;;32.22;20.85;;;15.90;99.90;;;;;;5038662;28;20141;-80
2021/08/18 02:58:00;;;;;;;29.65;20.65;;;15.90;99.90;;;;;;5036884;28;20136;-80
2021/08/18 03:00:27;;;;;;;30.33;19.75;;;15.90;99.90;;;;;;5038344;28;20077;-81
2021/08/18 03:02:54;;;;;;;30.45;20.10;;;15.90;99.90;;;;;;5038442;28;20132;-81
2021/08/18 03:05:21;;;;;;;27.42;20.20;;;15.90;99.90;;;;;;5037585;28;20132;-80
2021/08/18 03:07:48;;;;;;;27.45;19.45;;;15.90;99.90;;;;;;5038175;28;20574;-80
2021/08/18 03:10:15;;;;;;;27.50;19.85;;;15.90;99.90;;;;;;5033788;28;20055;-79
2021/08/18 03:12:43;;;;;;;24.40;18.67;;;15.90;99.90;;;;;;5037309;28;20473;-81
2021/08/18 03:15:11;;;;;;;25.60;19.23;;;15.90;99.90;;;;;;5038209;28;20096;-81
2021/08/18 03:17:38;;;;;;;25.13;19.20;;;15.90;99.90;;;;;;5039200;28;20060;-81
2021/08/18 03:20:07;;;;;;;25.63;19.20;;;15.90;99.90;;;;;;5038730;28;20080;-82
2021/08/18 03:22:35;;;;;;;28.13;19.20;;;15.90;99.90;;;;;;5037488;28;20045;-81
2021/08/18 03:25:02;;;;;;;24.48;19.50;;;15.80;99.90;;;;;;5037022;28;20367;-81
2021/08/18 03:27:29;;;;;;;26.17;20.00;;;15.80;99.90;;;;;;5037385;28;20140;-81
2021/08/18 03:29:57;;;;;;;26.98;19.95;;;15.80;99.90;;;;;;5036865;28;20132;-80
2021/08/18 03:32:24;;;;;;;31.17;20.33;;;15.80;99.90;;;;;;5037879;28;20132;-81
2021/08/18 03:34:51;;;;;;;29.48;19.90;;;15.80;99.90;;;;;;5038506;28;20247;-81
2021/08/18 03:37:18;;;;;;;31.58;20.05;;;15.80;99.90;;;;;;5038214;28;20128;-81
2021/08/18 03:39:45;;;;;;;27.10;19.65;;;15.80;99.90;;;;;;5038605;28;20465;-81
2021/08/18 03:42:12;;;;;;;27.33;19.00;;;15.80;99.90;;;;;;5037796;28;20137;-81
2021/08/18 03:44:39;;;;;;;28.88;19.15;;;15.80;99.90;;;;;;5037633;28;20057;-81
2021/08/18 03:47:07;;;;;;;26.88;18.70;;;15.80;99.90;;;;;;5036566;28;20069;-80
2021/08/18 03:49:34;;;;;;;25.38;18.83;;;15.80;99.90;;;;;;5036042;28;20085;-80
2021/08/18 03:52:01;;;;;;;25.98;17.88;;;15.80;99.90;;;;;;5035890;28;20103;-80
2021/08/18 03:54:27;;;;;;;22.27;16.67;;;15.80;99.90;;;;;;5037175;28;20053;-79
2021/08/18 03:56:54;;;;;;;25.02;18.23;;;15.90;99.90;;;;;;5036175;28;20136;-79
2021/08/18 03:59:21;;;;;;;20.98;16.45;;;15.90;99.90;;;;;;5035163;28;20080;-80
2021/08/18 04:01:48;;;;;;;21.73;15.82;;;15.90;99.90;;;;;;5035708;28;20080;-79
2021/08/18 04:04:16;;;;;;;21.48;15.32;;;15.90;99.90;;;;;;5034487;28;20128;-79
2021/08/18 04:06:43;;;;;;;22.00;15.98;;;15.80;99.90;;;;;;5033786;28;20045;-79
2021/08/18 04:09:10;;;;;;;23.23;15.77;;;15.90;99.90;;;;;;5032169;28;20136;-80
2021/08/18 04:11:37;;;;;;;27.00;15.93;;;15.90;99.90;;;;;;5032146;28;20565;-78
2021/08/18 04:14:04;;;;;;;25.05;17.35;;;15.90;99.90;;;;;;5031348;28;20477;-80
2021/08/18 04:16:31;;;;;;;24.73;16.80;;;15.90;99.90;;;;;;5032010;28;20116;-79
2021/08/18 04:18:58;;;;;;;25.40;17.30;;;15.80;99.90;;;;;;5032823;28;20073;-79
2021/08/18 04:21:26;;;;;;;24.02;18.17;;;15.90;99.90;;;;;;5032266;28;20470;-79
2021/08/18 04:23:53;;;;;;;24.27;17.05;;;15.80;99.90;;;;;;5031540;28;20167;-80
2021/08/18 04:26:19;;;;;;;26.02;17.63;;;15.90;99.90;;;;;;5031883;28;20428;-78
2021/08/18 04:28:46;;;;;;;22.55;17.70;;;15.90;99.90;;;;;;5030806;28;20051;-78
2021/08/18 04:31:13;;;;;;;23.63;17.17;;;15.90;99.90;;;;;;5030667;28;20152;-78
2021/08/18 04:33:40;;;;;;;24.85;18.40;;;15.90;99.90;;;;;;5030259;28;20150;-78
2021/08/18 04:36:07;;;;;;;26.35;18.25;;;15.90;99.90;;;;;;5030480;28;20145;-78
2021/08/18 04:38:35;;;;;;;27.88;18.80;;;15.90;99.90;;;;;;5030424;28;20089;-78
2021/08/18 04:41:02;;;;;;;27.50;19.52;;;16.00;99.90;;;;;;5030295;28;20732;-78
2021/08/18 04:43:29;;;;;;;26.38;18.55;;;16.00;99.90;;;;;;5030284;28;20096;-79
2021/08/18 04:45:56;;;;;;;29.95;19.40;;;16.10;99.90;;;;;;5030328;28;20470;-79
2021/08/18 04:48:22;;;;;;;26.65;20.60;;;16.00;99.90;;;;;;5030397;28;20055;-78
2021/08/18 04:50:49;;;;;;;32.17;20.77;;;16.10;99.90;;;;;;5030472;28;20052;-79
2021/08/18 04:53:17;;;;;;;31.48;20.38;;;16.00;99.90;;;;;;5030286;28;20132;-78
2021/08/18 04:55:45;;;;;;;29.45;20.23;;;16.00;99.90;;;;;;5031295;28;20152;-78
2021/08/18 04:58:12;;;;;;;28.50;20.05;;;16.00;99.90;;;;;;5032777;28;20138;-78
2021/08/18 05:00:39;;;;;;;32.30;21.15;;;16.00;99.90;;;;;;5034649;28;20080;-79
2021/08/18 05:03:05;;;;;;;32.65;22.08;;;16.10;99.90;;;;;;5039424;28;20081;-79
2021/08/18 05:05:32;;;;;;;31.25;22.00;;;16.10;99.90;;;;;;5038679;28;20084;-79
2021/08/18 05:08:01;;;;;;;36.72;22.88;;;16.10;99.90;;;;;;5038069;28;20111;-78
2021/08/18 05:10:28;;;;;;;34.58;24.45;;;16.20;99.90;;;;;;5036750;28;20050;-78
2021/08/18 05:12:56;;;;;;;35.42;23.48;;;16.20;99.90;;;;;;5036803;28;20081;-77
2021/08/18 05:17:57;;;;;;;38.42;25.52;;;16.20;99.90;;;;;;5040967;22;20055;-82
2021/08/18 05:20:24;;;;;;;38.95;26.65;;;16.20;99.90;;;;;;5020052;28;20137;-83
2021/08/18 05:22:54;;;;;;;37.40;25.95;;;16.20;99.90;;;;;;5024540;28;20128;-82
2021/08/18 05:25:23;;;;;;;41.35;27.42;;;16.20;99.90;;;;;;5024745;28;20073;-82
2021/08/18 05:27:53;;;;;;;42.17;27.48;;;16.20;99.90;;;;;;5024781;28;20132;-81
2021/08/18 05:30:21;;;;;;;42.45;27.50;;;16.20;99.90;;;;;;5025478;28;20081;-80
2021/08/18 05:32:48;;;;;;;46.25;28.33;;;16.20;99.90;;;;;;5024870;28;20130;-81
2021/08/18 05:35:16;;;;;;;44.40;29.02;;;16.30;99.90;;;;;;5023902;28;20053;-82
2021/08/18 05:37:45;;;;;;;41.33;30.20;;;16.30;99.90;;;;;;5023204;28;20056;-82
2021/08/18 05:40:12;;;;;;;40.80;29.02;;;16.30;99.90;;;;;;5023842;28;20073;-85
2021/08/18 05:42:39;;;;;;;48.70;29.65;;;16.30;99.90;;;;;;5023351;28;20078;-82
2021/08/18 05:45:07;;;;;;;42.15;28.58;;;16.40;99.90;;;;;;5022408;28;20113;-81
2021/08/18 05:47:35;;;;;;;42.92;29.25;;;16.40;99.90;;;;;;5023387;28;20081;-83
2021/08/18 05:50:05;;;;;;;41.13;28.52;;;16.50;99.90;;;;;;5023032;28;20110;-83
2021/08/18 05:52:31;;;;;;;41.58;28.55;;;16.50;99.90;;;;;;5002842;28;20047;-84
2021/08/18 05:55:02;;;;;;;41.72;28.70;;;16.50;99.90;;;;;;4983415;28;20074;-83
2021/08/18 05:57:29;;;;;;;46.33;29.92;;;16.60;99.90;;;;;;4986116;28;20115;-82
2021/08/18 05:59:56;;;;;;;43.67;29.23;;;16.50;99.90;;;;;;4986123;28;20062;-83
2021/08/18 06:02:23;;;;;;;41.63;28.88;;;16.60;99.90;;;;;;4998998;28;20119;-85
2021/08/18 06:04:51;;;;;;;39.60;26.98;;;16.60;99.90;;;;;;4990724;28;20077;-84
2021/08/18 06:07:18;;;;;;;38.40;27.33;;;16.60;99.90;;;;;;4992154;28;20479;-83
2021/08/18 06:09:45;;;;;;;40.63;27.23;;;16.60;99.90;;;;;;4987596;28;20081;-85
2021/08/18 06:12:12;;;;;;;37.53;25.92;;;16.70;99.90;;;;;;4988378;28;20046;-82
2021/08/18 06:14:39;;;;;;;35.78;25.73;;;16.70;99.90;;;;;;4995229;28;20058;-81
2021/08/18 06:17:06;;;;;;;35.78;25.63;;;16.80;99.90;;;;;;4991309;28;20117;-84
2021/08/18 06:19:33;;;;;;;36.05;26.40;;;16.80;99.90;;;;;;4990616;28;20050;-83
2021/08/18 06:22:01;;;;;;;35.38;24.05;;;16.80;99.90;;;;;;5000389;28;20046;-84
2021/08/18 06:24:29;;;;;;;32.35;23.70;;;16.90;99.90;;;;;;4992292;28;20110;-84
2021/08/18 06:26:58;;;;;;;33.90;24.02;;;16.90;99.90;;;;;;5001224;28;20129;-85
2021/08/18 06:29:28;;;;;;;29.90;21.92;;;16.90;99.90;;;;;;5003478;28;20137;-84
2021/08/18 06:31:55;;;;;;;31.08;22.13;;;16.90;99.90;;;;;;5002876;28;20060;-83
2021/08/18 06:34:22;;;;;;;27.08;21.20;;;16.80;99.90;;;;;;5002286;28;20081;-82
2021/08/18 06:36:49;;;;;;;26.50;19.90;;;16.90;99.90;;;;;;5001040;28;20435;-82
2021/08/18 06:39:18;;;;;;;26.13;19.88;;;16.90;99.90;;;;;;5001006;28;20074;-83
2021/08/18 06:41:45;;;;;;;22.58;16.90;;;16.90;99.90;;;;;;4990278;28;20135;-84
2021/08/18 06:44:11;;;;;;;21.77;16.42;;;17.00;99.90;;;;;;4983346;28;20098;-84
2021/08/18 06:46:38;;;;;;;20.48;17.05;;;17.10;99.90;;;;;;4982752;28;20141;-84
2021/08/18 06:49:05;;;;;;;19.63;16.20;;;17.10;99.90;;;;;;4982151;28;20110;-83
2021/08/18 06:51:32;;;;;;;21.52;16.25;;;17.20;99.90;;;;;;4980980;28;20141;-85
2021/08/18 06:53:59;;;;;;;19.50;15.95;;;17.30;99.90;;;;;;4981425;28;20079;-83
2021/08/18 06:56:27;;;;;;;22.13;16.10;;;17.30;99.90;;;;;;4980945;28;20146;-83
2021/08/18 06:58:54;;;;;;;19.50;15.35;;;17.40;99.90;;;;;;4982661;28;20081;-83
2021/08/18 07:01:21;;;;;;;20.50;16.40;;;17.50;99.90;;;;;;4983737;28;20129;-83
2021/08/18 07:03:47;;;;;;;25.73;17.15;;;17.50;99.90;;;;;;4983664;28;20105;-84
2021/08/18 07:06:14;;;;;;;21.95;18.38;;;17.60;99.90;;;;;;4984282;28;20114;-84
2021/08/18 07:08:41;;;;;;;22.70;17.40;;;17.50;99.90;;;;;;4984708;28;20078;-83
2021/08/18 07:11:08;;;;;;;21.80;18.27;;;17.50;99.90;;;;;;4983608;28;20090;-84
2021/08/18 07:13:36;;;;;;;23.38;18.67;;;17.60;99.90;;;;;;4981907;28;20055;-84
2021/08/18 07:16:04;;;;;;;25.38;20.08;;;17.50;99.90;;;;;;4982233;28;20106;-83
2021/08/18 07:18:31;;;;;;;22.50;19.08;;;17.50;99.90;;;;;;4982541;28;20448;-84
2021/08/18 07:20:58;;;;;;;25.13;19.33;;;17.50;99.90;;;;;;4981698;28;20468;-84
2021/08/18 07:23:25;;;;;;;27.13;19.25;;;17.50;99.90;;;;;;4979002;28;20468;-81
2021/08/18 07:25:52;;;;;;;23.13;18.85;;;17.60;99.90;;;;;;4978786;28;20487;-82
2021/08/18 07:28:19;;;;;;;24.75;20.65;;;17.60;99.90;;;;;;4983734;28;20114;-82
2021/08/18 07:30:47;;;;;;;23.25;19.58;;;17.60;99.90;;;;;;4983517;28;20137;-80
2021/08/18 07:33:14;;;;;;;23.35;20.15;;;17.50;99.90;;;;;;4983094;28;20113;-83
2021/08/18 07:35:41;;;;;;;28.45;21.00;;;17.50;99.90;;;;;;4984092;28;20078;-83
2021/08/18 07:38:08;;;;;;;29.42;19.85;;;17.50;99.90;;;;;;4984100;28;20086;-82
2021/08/18 07:40:34;;;;;;;22.60;18.42;;;17.50;99.90;;;;;;4984609;28;20134;-83
2021/08/18 07:43:01;;;;;;;24.10;18.45;;;17.50;99.90;;;;;;4984094;28;20054;-83
2021/08/18 07:45:28;;;;;;;22.77;17.48;;;17.50;99.90;;;;;;4983925;28;20082;-83
2021/08/18 07:47:57;;;;;;;22.83;17.50;;;17.50;99.90;;;;;;4983803;28;20065;-83
2021/08/18 07:50:24;;;;;;;17.55;15.63;;;17.50;99.90;;;;;;4983871;28;20090;-83
2021/08/18 07:52:50;;;;;;;20.67;15.65;;;17.50;99.90;;;;;;4984591;28;20093;-82
2021/08/18 07:55:17;;;;;;;20.08;15.18;;;17.50;99.90;;;;;;4986676;28;20121;-80
2021/08/18 07:57:44;;;;;;;23.85;19.05;;;17.60;99.90;;;;;;4995978;28;20038;-79
2021/08/18 08:00:12;;;;;;;18.30;15.25;;;17.50;99.90;;;;;;4996463;28;20071;-81
2021/08/18 08:02:41;;;;;;;21.10;15.30;;;17.50;99.90;;;;;;4985517;28;20047;-83
2021/08/18 08:05:11;;;;;;;19.42;15.98;;;17.50;99.90;;;;;;4982313;28;20456;-83
2021/08/18 08:07:38;;;;;;;17.95;15.65;;;17.50;99.90;;;;;;4981730;28;20114;-83
2021/08/18 08:10:06;;;;;;;18.70;16.42;;;17.60;99.90;;;;;;4982450;28;20129;-83
2021/08/18 08:12:33;;;;;;;18.65;14.07;;;17.70;99.90;;;;;;4982163;28;20047;-84
2021/08/18 08:15:00;;;;;;;16.38;13.68;;;17.80;99.90;;;;;;4981477;28;20051;-82
2021/08/18 08:17:27;;;;;;;16.05;13.52;;;17.80;99.90;;;;;;4981766;28;20139;-82
2021/08/18 08:19:54;;;;;;;15.10;12.52;;;17.80;99.90;;;;;;4981789;28;20047;-80
2021/08/18 08:22:22;;;;;;;15.80;12.98;;;17.80;99.90;;;;;;4981529;28;20054;-82
2021/08/18 08:24:49;;;;;;;15.15;11.88;;;17.90;99.90;;;;;;4983739;28;20542;-82
2021/08/18 08:27:17;;;;;;;14.10;12.48;;;17.80;99.90;;;;;;4981020;28;20078;-83
2021/08/18 08:29:43;;;;;;;15.13;12.23;;;17.80;99.90;;;;;;4982271;28;20082;-82
2021/08/18 08:32:10;;;;;;;13.82;11.73;;;17.80;99.90;;;;;;4982790;28;20138;-81
2021/08/18 08:34:38;;;;;;;14.70;11.63;;;17.80;99.90;;;;;;4981676;28;20054;-82
2021/08/18 08:37:06;;;;;;;12.10;10.80;;;17.70;99.90;;;;;;4986848;28;20055;-81
2021/08/18 08:39:34;;;;;;;12.68;10.45;;;17.70;99.90;;;;;;4987535;28;20154;-85
2021/08/18 08:42:04;;;;;;;11.38;8.77;;;17.70;99.90;;;;;;4998326;28;20062;-83
2021/08/18 08:44:33;;;;;;;11.18;9.57;;;17.60;99.90;;;;;;5000202;28;20050;-80
2021/08/18 08:47:00;;;;;;;10.73;9.15;;;17.60;99.90;;;;;;5000054;28;20062;-81
2021/08/18 08:49:28;;;;;;;11.43;9.75;;;17.60;99.90;;;;;;4999296;28;20062;-82
2021/08/18 08:51:55;;;;;;;7.35;6.60;;;17.70;99.90;;;;;;4999760;28;20055;-81
2021/08/18 08:54:22;;;;;;;10.38;6.78;;;17.70;99.90;;;;;;4991558;28;20050;-83
2021/08/18 08:56:50;;;;;;;5.88;5.28;;;17.60;99.90;;;;;;4988364;28;20054;-82
2021/08/18 08:59:17;;;;;;;6.63;5.43;;;17.60;99.90;;;;;;4988098;28;20133;-81
2021/08/18 09:02:02;;;;;;;8.32;5.20;;;17.60;99.90;;;;;;4989735;28;20058;-82
2021/08/18 09:04:30;;;;;;;5.88;4.95;;;17.50;99.90;;;;;;4998364;28;20082;-81
2021/08/18 09:07:11;;;;;;;5.78;5.00;;;17.50;99.90;;;;;;4990802;28;20090;-81
2021/08/18 09:09:41;;;;;;;5.97;5.00;;;17.50;99.90;;;;;;4986708;28;20090;-83
2021/08/18 09:12:12;;;;;;;5.55;4.95;;;17.40;99.90;;;;;;4986887;28;20081;-82
2021/08/18 09:14:43;;;;;;;6.80;5.93;;;17.50;99.90;;;;;;4986358;28;20047;-82
2021/08/18 09:17:31;;;;;;;6.03;5.43;;;17.50;99.90;;;;;;4987035;28;20137;-82
2021/08/18 09:20:06;;;;;;;6.20;5.00;;;17.50;99.90;;;;;;4987904;28;20423;-83
2021/08/18 09:22:38;;;;;;;5.78;4.88;;;17.50;99.90;;;;;;4988629;28;20055;-83
2021/08/18 09:25:24;;;;;;;5.85;5.07;;;17.40;99.90;;;;;;4986670;28;20078;-83
2021/08/18 09:27:57;;;;;;;5.40;4.65;;;17.30;99.90;;;;;;4986578;28;20046;-81
2021/08/18 09:30:27;;;;;;;5.40;4.90;;;17.40;99.90;;;;;;4986418;28;20153;-82
2021/08/18 09:32:55;;;;;;;5.65;4.38;;;17.40;99.90;;;;;;4985692;28;20133;-82
2021/08/18 09:35:24;;;;;;;5.93;5.30;;;17.50;99.90;;;;;;4985921;28;20078;-83
2021/08/18 09:38:00;;;;;;;6.05;4.78;;;17.50;99.90;;;;;;4986096;28;20074;-82
2021/08/18 09:40:29;;;;;;;5.28;4.70;;;17.50;99.90;;;;;;4985623;28;20492;-84
2021/08/18 09:43:12;;;;;;;5.78;5.18;;;17.50;99.90;;;;;;4986843;28;20042;-80
2021/08/18 09:45:42;;;;;;;6.88;5.43;;;17.50;99.90;;;;;;4987472;28;20061;-83
2021/08/18 09:48:12;;;;;;;6.82;5.40;;;17.50;99.90;;;;;;4986890;28;20415;-82
2021/08/18 09:50:44;;;;;;;6.80;6.03;;;17.70;99.90;;;;;;4986896;28;20057;-82
2021/08/18 09:53:12;;;;;;;;;;;17.80;99.90;;;;;;4985003;28;20300;-83
2021/08/18 09:55:47;;;;;;;7.25;6.40;;;18.00;99.90;;;;;;4985726;28;20013;-82
2021/08/18 09:58:24;;;;;;;9.73;7.72;;;18.10;99.90;;;;;;4986309;28;20075;-82
2021/08/18 10:00:51;;;;;;;8.55;7.65;;;18.20;99.90;;;;;;4986115;28;20089;-83
2021/08/18 10:03:19;;;;;;;7.95;6.90;;;18.20;99.90;;;;;;4985306;28;20130;-80
2021/08/18 10:05:48;;;;;;;9.55;6.93;;;18.10;99.90;;;;;;4985876;28;20391;-82
2021/08/18 10:08:15;;;;;;;8.15;6.80;;;18.10;99.90;;;;;;4987136;28;20150;-83
2021/08/18 10:10:43;;;;;;;6.65;5.63;;;18.00;99.90;;;;;;4986969;28;20074;-83
2021/08/18 10:13:11;;;;;;;5.97;5.38;;;17.90;99.90;;;;;;4986604;28;20055;-81
2021/08/18 10:15:40;;;;;;;5.53;4.97;;;17.90;99.90;;;;;;4988234;28;20408;-82
2021/08/18 10:18:08;;;;;;;6.00;5.40;;;17.90;99.90;;;;;;4997265;28;20077;-83
2021/08/18 10:20:36;;;;;;;6.18;5.57;;;17.80;99.90;;;;;;5006913;28;20074;-82
2021/08/18 10:23:05;;;;;;;6.32;5.60;;;17.90;99.90;;;;;;4986734;28;20126;-81
2021/08/18 10:25:37;;;;;;;6.50;5.80;;;18.10;99.90;;;;;;4984003;28;20522;-82
2021/08/18 10:28:06;;;;;;;5.93;5.32;;;18.40;99.90;;;;;;4928066;29;20073;-80
2021/08/18 10:30:44;;;;;;;5.72;5.10;;;18.60;99.90;;;;;;4856093;29;1107516;-80
2021/08/18 10:33:12;;;;;;;5.78;4.93;;;18.80;99.90;;;;;;4871955;29;20136;-83
2021/08/18 10:35:45;;;;;;;5.78;4.57;;;19.00;99.90;;;;;;4873651;29;20458;-82
2021/08/18 10:38:35;;;;;;;5.50;4.82;;;19.10;99.90;;;;;;4871417;29;20081;-80
2021/08/18 10:41:02;;;;;;;5.32;4.72;;;19.20;99.90;;;;;;4871185;29;20053;-83
2021/08/18 10:43:59;;;;;;;6.40;4.82;;;19.40;99.90;;;;;;4871221;29;20050;-80
2021/08/18 10:46:27;;;;;;;6.95;4.53;;;19.50;99.90;;;;;;4871023;29;20088;-82
2021/08/18 10:49:04;;;;;;;5.65;5.05;;;19.50;99.90;;;;;;4870334;29;20471;-81
2021/08/18 10:51:50;;;;;;;6.05;5.13;;;19.50;99.90;;;;;;4870142;29;20109;-80
2021/08/18 10:54:39;;;;;;;5.63;4.93;;;19.50;99.90;;;;;;4869657;29;20327;-81
2021/08/18 10:57:47;;;;;;;5.70;5.10;;;19.40;99.90;;;;;;4870370;29;20136;-81
2021/08/18 11:00:17;;;;;;;7.30;4.97;;;19.50;99.90;;;;;;4870774;29;20467;-82
2021/08/18 11:02:59;;;;;;;6.95;5.18;;;19.50;99.90;;;;;;4870919;29;20084;-83
2021/08/18 11:05:29;;;;;;;5.22;4.53;;;19.30;99.90;;;;;;4870769;29;20057;-82
2021/08/18 11:08:13;;;;;;;6.57;4.97;;;19.20;99.90;;;;;;4871566;29;20208;-81
2021/08/18 11:10:43;;;;;;;6.45;4.90;;;19.30;99.90;;;;;;4871778;29;20057;-82
2021/08/18 11:13:11;;;;;;;5.93;5.00;;;19.10;99.90;;;;;;4869944;29;20080;-83
2021/08/18 11:15:55;;;;;;;6.95;4.78;;;19.10;99.90;;;;;;4870928;29;20431;-83
2021/08/18 11:18:23;;;;;;;6.25;4.82;;;19.20;99.90;;;;;;4905527;24;20053;-82
2021/08/18 11:20:53;;;;;;;5.03;4.40;;;19.20;99.90;;;;;;4853390;29;20106;-82
2021/08/18 11:23:32;;;;;;;6.50;4.60;;;19.30;99.90;;;;;;4855818;29;20054;-81
2021/08/18 11:26:07;;;;;;;8.18;4.70;;;19.40;99.90;;;;;;4853683;29;20086;-83
2021/08/18 11:28:38;;;;;;;7.32;5.80;;;19.60;99.90;;;;;;4849648;29;20057;-81
2021/08/18 11:31:07;;;;;;;6.90;5.20;;;19.80;99.90;;;;;;4897650;29;20104;-82
2021/08/18 11:33:35;;;;;;;7.53;5.60;;;20.10;99.90;;;;;;4904718;29;20044;-82
2021/08/18 11:36:14;;;;;;;8.07;5.60;;;20.40;99.90;;;;;;4905037;29;20163;-82
2021/08/18 11:38:41;;;;;;;8.27;6.68;;;20.60;99.90;;;;;;4905117;29;20083;-82
2021/08/18 11:41:13;;;;;;;7.10;6.07;;;20.70;99.90;;;;;;4903886;29;20131;-83
2021/08/18 11:43:45;;;;;;;9.38;7.43;;;20.80;99.90;;;;;;4904910;29;20108;-81
2021/08/18 11:46:15;;;;;;;9.73;8.60;;;20.90;99.90;;;;;;4905208;29;20056;-82
2021/08/18 11:48:42;;;;;;;10.00;8.38;;;21.10;99.90;;;;;;4905976;29;20124;-82
2021/08/18 11:51:19;;;;;;;10.80;8.18;;;21.10;99.90;;;;;;4910495;29;20490;-82
2021/08/18 11:53:54;;;;;;;9.63;8.13;;;21.30;99.90;;;;;;4905050;29;20060;-82
2021/08/18 11:56:26;;;;;;;9.70;7.93;;;21.20;99.90;;;;;;4905154;29;20195;-83
2021/08/18 11:58:58;;;;;;;11.35;7.78;;;21.30;99.90;;;;;;4904208;29;20058;-83
2021/08/18 12:01:25;;;;;;;9.00;8.10;;;21.20;99.90;;;;;;4909326;29;20063;-83
2021/08/18 12:03:52;;;;;;;9.63;8.35;;;21.20;99.90;;;;;;4906511;29;20087;-83
2021/08/18 12:06:35;;;;;;;11.32;10.13;;;21.30;99.90;;;;;;4904894;29;20429;-83
2021/08/18 12:09:04;;;;;;;12.30;10.25;;;21.40;99.90;;;;;;4906070;29;20053;-83
2021/08/18 12:11:35;;;;;;;13.43;10.55;;;21.30;99.90;;;;;;4906294;29;20433;-83
2021/08/18 12:14:10;;;;;;;12.38;10.63;;;21.30;99.90;;;;;;4905343;29;20201;-83
2021/08/18 12:16:56;;;;;;;11.55;10.35;;;21.10;99.90;;;;;;4906177;29;20539;-83
2021/08/18 12:19:38;;;;;;;13.15;9.73;;;20.90;99.90;;;;;;4905743;29;20140;-83
2021/08/18 12:22:31;;;;;;;15.13;9.07;;;20.70;99.90;;;;;;4905777;29;20457;-83
2021/08/18 12:25:12;;;;;;;11.85;9.13;;;20.70;99.90;;;;;;4904638;29;20055;-83
2021/08/18 12:27:40;;;;;;;10.93;9.48;;;20.50;99.90;;;;;;4906448;29;20060;-83
2021/08/18 12:30:21;;;;;;;12.50;9.93;;;20.30;99.90;;;;;;4921054;29;20052;-83
2021/08/18 12:32:48;;;;;;;11.93;9.75;;;20.30;99.90;;;;;;4886777;29;20053;-83
2021/08/18 12:35:19;;;;;;;8.50;6.85;;;20.20;99.90;;;;;;4885555;29;20053;-82
2021/08/18 12:37:53;;;;;;;6.65;5.72;;;20.00;99.90;;;;;;4885917;29;20117;-83
2021/08/18 12:40:24;;;;;;;7.53;6.75;;;19.70;99.90;;;;;;4887443;29;20057;-80
2021/08/18 12:42:56;;;;;;;10.80;7.07;;;19.60;99.90;;;;;;4886501;29;20086;-84
2021/08/18 12:45:27;;;;;;;9.32;8.15;;;19.50;99.90;;;;;;4886074;29;20128;-83